sensor_id;sensor_type;location;lat;lon;timestamp;P1;durP1;ratioP1;P2;durP2;ratioP2
5219;SDS011;2629;50.768;7.308;2022-09-28T00:01:26;4.70;;;2.00;;
5219;SDS011;2629;50.768;7.308;2022-09-28T00:03:55;8.53;;;2.77;;
5219;SDS011;2629;50.768;7.308;2022-09-28T00:06:28;10.20;;;1.90;;
5219;SDS011;2629;50.768;7.308;2022-09-28T00:08:57;7.30;;;1.70;;
5219;SDS011;2629;50.768;7.308;2022-09-28T00:11:27;3.20;;;1.80;;
5219;SDS011;2629;50.768;7.308;2022-09-28T00:13:57;3.50;;;1.67;;
5219;SDS011;2629;50.768;7.308;2022-09-28T00:16:28;5.00;;;1.57;;
5219;SDS011;2629;50.768;7.308;2022-09-28T00:18:58;2.90;;;1.60;;
5219;SDS011;2629;50.768;7.308;2022-09-28T00:21:29;10.43;;;1.53;;
5219;SDS011;2629;50.768;7.308;2022-09-28T00:23:59;3.73;;;1.70;;
5219;SDS011;2629;50.768;7.308;2022-09-28T00:26:43;4.23;;;1.47;;
5219;SDS011;2629;50.768;7.308;2022-09-28T00:29:20;5.30;;;1.30;;
5219;SDS011;2629;50.768;7.308;2022-09-28T00:31:50;3.70;;;1.50;;
5219;SDS011;2629;50.768;7.308;2022-09-28T00:34:19;3.57;;;1.50;;
5219;SDS011;2629;50.768;7.308;2022-09-28T00:36:50;3.23;;;1.33;;
5219;SDS011;2629;50.768;7.308;2022-09-28T00:39:19;4.23;;;1.43;;
5219;SDS011;2629;50.768;7.308;2022-09-28T00:41:47;5.80;;;1.60;;
5219;SDS011;2629;50.768;7.308;2022-09-28T00:47:20;3.27;;;1.83;;
5219;SDS011;2629;50.768;7.308;2022-09-28T00:49:53;4.80;;;1.53;;
5219;SDS011;2629;50.768;7.308;2022-09-28T00:52:25;3.17;;;1.77;;
5219;SDS011;2629;50.768;7.308;2022-09-28T00:54:55;7.33;;;1.20;;
5219;SDS011;2629;50.768;7.308;2022-09-28T00:57:26;7.27;;;1.53;;
5219;SDS011;2629;50.768;7.308;2022-09-28T00:59:56;3.93;;;1.77;;
5219;SDS011;2629;50.768;7.308;2022-09-28T01:02:27;3.37;;;1.30;;
5219;SDS011;2629;50.768;7.308;2022-09-28T01:04:56;5.00;;;1.20;;
5219;SDS011;2629;50.768;7.308;2022-09-28T01:07:27;3.17;;;1.37;;
5219;SDS011;2629;50.768;7.308;2022-09-28T01:09:56;2.50;;;1.10;;
5219;SDS011;2629;50.768;7.308;2022-09-28T01:12:25;4.90;;;1.00;;
5219;SDS011;2629;50.768;7.308;2022-09-28T01:14:54;2.10;;;1.07;;
5219;SDS011;2629;50.768;7.308;2022-09-28T01:17:25;2.70;;;1.10;;
5219;SDS011;2629;50.768;7.308;2022-09-28T01:20:04;3.83;;;1.17;;
5219;SDS011;2629;50.768;7.308;2022-09-28T01:22:41;2.80;;;1.10;;
5219;SDS011;2629;50.768;7.308;2022-09-28T01:25:16;2.50;;;1.20;;
5219;SDS011;2629;50.768;7.308;2022-09-28T01:27:50;3.53;;;1.23;;
5219;SDS011;2629;50.768;7.308;2022-09-28T01:30:19;2.53;;;1.20;;
5219;SDS011;2629;50.768;7.308;2022-09-28T01:32:49;2.23;;;1.07;;
5219;SDS011;2629;50.768;7.308;2022-09-28T01:35:21;4.10;;;1.50;;
5219;SDS011;2629;50.768;7.308;2022-09-28T01:37:53;2.57;;;1.00;;
5219;SDS011;2629;50.768;7.308;2022-09-28T01:40:25;2.90;;;1.30;;
5219;SDS011;2629;50.768;7.308;2022-09-28T01:42:56;4.30;;;1.33;;
5219;SDS011;2629;50.768;7.308;2022-09-28T01:45:28;2.93;;;1.00;;
5219;SDS011;2629;50.768;7.308;2022-09-28T01:47:59;4.73;;;1.57;;
5219;SDS011;2629;50.768;7.308;2022-09-28T01:50:30;2.50;;;1.10;;
5219;SDS011;2629;50.768;7.308;2022-09-28T01:53:03;2.47;;;0.90;;
5219;SDS011;2629;50.768;7.308;2022-09-28T01:55:34;2.30;;;0.93;;
5219;SDS011;2629;50.768;7.308;2022-09-28T01:58:08;2.10;;;0.97;;
5219;SDS011;2629;50.768;7.308;2022-09-28T02:00:40;2.20;;;0.90;;
5219;SDS011;2629;50.768;7.308;2022-09-28T02:03:14;5.60;;;1.20;;
5219;SDS011;2629;50.768;7.308;2022-09-28T02:05:53;1.90;;;0.80;;
5219;SDS011;2629;50.768;7.308;2022-09-28T02:08:25;4.60;;;0.90;;
5219;SDS011;2629;50.768;7.308;2022-09-28T02:10:56;2.50;;;0.90;;
5219;SDS011;2629;50.768;7.308;2022-09-28T02:13:30;6.03;;;1.23;;
5219;SDS011;2629;50.768;7.308;2022-09-28T02:16:01;2.63;;;1.20;;
5219;SDS011;2629;50.768;7.308;2022-09-28T02:18:31;5.63;;;1.20;;
5219;SDS011;2629;50.768;7.308;2022-09-28T02:21:03;3.53;;;1.20;;
5219;SDS011;2629;50.768;7.308;2022-09-28T02:23:34;8.70;;;1.30;;
5219;SDS011;2629;50.768;7.308;2022-09-28T02:26:05;3.30;;;1.00;;
5219;SDS011;2629;50.768;7.308;2022-09-28T02:28:37;2.73;;;1.20;;
5219;SDS011;2629;50.768;7.308;2022-09-28T02:31:06;3.07;;;1.60;;
5219;SDS011;2629;50.768;7.308;2022-09-28T02:33:35;2.87;;;1.17;;
5219;SDS011;2629;50.768;7.308;2022-09-28T02:36:05;2.50;;;1.00;;
5219;SDS011;2629;50.768;7.308;2022-09-28T02:38:37;3.30;;;1.47;;
5219;SDS011;2629;50.768;7.308;2022-09-28T02:41:08;4.07;;;1.50;;
5219;SDS011;2629;50.768;7.308;2022-09-28T02:43:43;3.13;;;1.23;;
5219;SDS011;2629;50.768;7.308;2022-09-28T02:46:16;2.10;;;1.10;;
5219;SDS011;2629;50.768;7.308;2022-09-28T02:48:53;2.60;;;1.30;;
5219;SDS011;2629;50.768;7.308;2022-09-28T02:51:51;2.03;;;0.90;;
5219;SDS011;2629;50.768;7.308;2022-09-28T02:54:30;3.07;;;1.40;;
5219;SDS011;2629;50.768;7.308;2022-09-28T02:57:06;2.90;;;1.37;;
5219;SDS011;2629;50.768;7.308;2022-09-28T02:59:45;3.10;;;1.03;;
5219;SDS011;2629;50.768;7.308;2022-09-28T03:02:22;4.50;;;1.30;;
5219;SDS011;2629;50.768;7.308;2022-09-28T03:07:38;3.60;;;1.10;;
5219;SDS011;2629;50.768;7.308;2022-09-28T03:10:09;2.20;;;1.00;;
5219;SDS011;2629;50.768;7.308;2022-09-28T03:12:39;4.47;;;1.00;;
5219;SDS011;2629;50.768;7.308;2022-09-28T03:15:11;3.30;;;1.53;;
5219;SDS011;2629;50.768;7.308;2022-09-28T03:17:41;4.80;;;1.30;;
5219;SDS011;2629;50.768;7.308;2022-09-28T03:20:12;2.67;;;1.30;;
5219;SDS011;2629;50.768;7.308;2022-09-28T03:22:41;2.60;;;1.00;;
5219;SDS011;2629;50.768;7.308;2022-09-28T03:25:31;6.43;;;1.30;;
5219;SDS011;2629;50.768;7.308;2022-09-28T03:28:00;3.67;;;1.30;;
5219;SDS011;2629;50.768;7.308;2022-09-28T03:30:34;2.87;;;1.40;;
5219;SDS011;2629;50.768;7.308;2022-09-28T03:33:03;3.50;;;1.43;;
5219;SDS011;2629;50.768;7.308;2022-09-28T03:35:32;3.27;;;1.50;;
5219;SDS011;2629;50.768;7.308;2022-09-28T03:38:01;5.03;;;1.40;;
5219;SDS011;2629;50.768;7.308;2022-09-28T03:40:33;4.40;;;1.40;;
5219;SDS011;2629;50.768;7.308;2022-09-28T03:43:02;3.87;;;1.50;;
5219;SDS011;2629;50.768;7.308;2022-09-28T03:45:31;2.77;;;1.10;;
5219;SDS011;2629;50.768;7.308;2022-09-28T03:48:01;4.00;;;1.47;;
5219;SDS011;2629;50.768;7.308;2022-09-28T03:50:32;4.50;;;1.70;;
5219;SDS011;2629;50.768;7.308;2022-09-28T03:53:01;4.83;;;1.80;;
5219;SDS011;2629;50.768;7.308;2022-09-28T03:55:30;5.10;;;1.30;;
5219;SDS011;2629;50.768;7.308;2022-09-28T03:58:02;3.00;;;1.53;;
5219;SDS011;2629;50.768;7.308;2022-09-28T04:00:31;3.10;;;1.50;;
5219;SDS011;2629;50.768;7.308;2022-09-28T04:02:59;4.40;;;1.47;;
5219;SDS011;2629;50.768;7.308;2022-09-28T04:05:29;3.40;;;2.30;;
5219;SDS011;2629;50.768;7.308;2022-09-28T04:07:58;3.80;;;2.00;;
5219;SDS011;2629;50.768;7.308;2022-09-28T04:10:27;5.40;;;1.70;;
5219;SDS011;2629;50.768;7.308;2022-09-28T04:12:56;4.50;;;2.40;;
5219;SDS011;2629;50.768;7.308;2022-09-28T04:15:25;4.60;;;2.47;;
5219;SDS011;2629;50.768;7.308;2022-09-28T04:17:54;9.40;;;2.57;;
5219;SDS011;2629;50.768;7.308;2022-09-28T04:21:00;4.77;;;2.50;;
5219;SDS011;2629;50.768;7.308;2022-09-28T04:23:37;4.10;;;2.47;;
5219;SDS011;2629;50.768;7.308;2022-09-28T04:26:06;4.67;;;2.77;;
5219;SDS011;2629;50.768;7.308;2022-09-28T04:28:35;4.13;;;2.33;;
5219;SDS011;2629;50.768;7.308;2022-09-28T04:31:21;3.97;;;2.70;;
5219;SDS011;2629;50.768;7.308;2022-09-28T04:33:51;7.73;;;2.83;;
5219;SDS011;2629;50.768;7.308;2022-09-28T04:36:21;6.33;;;3.47;;
5219;SDS011;2629;50.768;7.308;2022-09-28T04:38:50;5.43;;;3.00;;
5219;SDS011;2629;50.768;7.308;2022-09-28T04:41:22;4.40;;;2.50;;
5219;SDS011;2629;50.768;7.308;2022-09-28T04:43:50;6.00;;;3.00;;
5219;SDS011;2629;50.768;7.308;2022-09-28T04:46:19;4.20;;;2.47;;
5219;SDS011;2629;50.768;7.308;2022-09-28T04:49:00;4.03;;;2.60;;
5219;SDS011;2629;50.768;7.308;2022-09-28T04:52:03;7.23;;;3.40;;
5219;SDS011;2629;50.768;7.308;2022-09-28T04:54:33;8.27;;;3.70;;
5219;SDS011;2629;50.768;7.308;2022-09-28T04:57:02;4.70;;;2.83;;
5219;SDS011;2629;50.768;7.308;2022-09-28T04:59:31;6.53;;;2.93;;
5219;SDS011;2629;50.768;7.308;2022-09-28T05:02:02;8.13;;;2.70;;
5219;SDS011;2629;50.768;7.308;2022-09-28T05:04:40;6.67;;;3.03;;
5219;SDS011;2629;50.768;7.308;2022-09-28T05:07:35;6.67;;;2.80;;
5219;SDS011;2629;50.768;7.308;2022-09-28T05:10:05;7.10;;;3.30;;
5219;SDS011;2629;50.768;7.308;2022-09-28T05:12:36;5.40;;;2.67;;
5219;SDS011;2629;50.768;7.308;2022-09-28T05:15:05;4.37;;;3.00;;
5219;SDS011;2629;50.768;7.308;2022-09-28T05:17:34;5.57;;;2.80;;
5219;SDS011;2629;50.768;7.308;2022-09-28T05:20:19;6.47;;;3.53;;
5219;SDS011;2629;50.768;7.308;2022-09-28T05:22:49;7.53;;;3.60;;
5219;SDS011;2629;50.768;7.308;2022-09-28T05:25:17;5.60;;;3.47;;
5219;SDS011;2629;50.768;7.308;2022-09-28T05:27:59;7.63;;;4.00;;
5219;SDS011;2629;50.768;7.308;2022-09-28T05:30:47;9.83;;;3.40;;
5219;SDS011;2629;50.768;7.308;2022-09-28T05:33:46;10.30;;;4.10;;
5219;SDS011;2629;50.768;7.308;2022-09-28T05:36:16;5.47;;;3.40;;
5219;SDS011;2629;50.768;7.308;2022-09-28T05:38:46;7.47;;;4.20;;
5219;SDS011;2629;50.768;7.308;2022-09-28T05:41:15;5.80;;;4.00;;
5219;SDS011;2629;50.768;7.308;2022-09-28T05:43:44;7.10;;;4.40;;
5219;SDS011;2629;50.768;7.308;2022-09-28T05:46:13;5.97;;;4.00;;
5219;SDS011;2629;50.768;7.308;2022-09-28T05:48:42;6.60;;;4.70;;
5219;SDS011;2629;50.768;7.308;2022-09-28T05:51:10;6.07;;;4.60;;
5219;SDS011;2629;50.768;7.308;2022-09-28T05:53:39;7.60;;;4.53;;
5219;SDS011;2629;50.768;7.308;2022-09-28T05:56:09;5.40;;;4.23;;
5219;SDS011;2629;50.768;7.308;2022-09-28T05:58:42;7.00;;;4.50;;
5219;SDS011;2629;50.768;7.308;2022-09-28T06:01:12;8.37;;;4.87;;
5219;SDS011;2629;50.768;7.308;2022-09-28T06:03:41;11.17;;;5.13;;
5219;SDS011;2629;50.768;7.308;2022-09-28T06:06:10;6.93;;;4.50;;
5219;SDS011;2629;50.768;7.308;2022-09-28T06:08:49;7.30;;;5.07;;
5219;SDS011;2629;50.768;7.308;2022-09-28T06:11:45;6.63;;;4.77;;
5219;SDS011;2629;50.768;7.308;2022-09-28T06:14:32;7.63;;;4.90;;
5219;SDS011;2629;50.768;7.308;2022-09-28T06:17:00;6.20;;;4.50;;
5219;SDS011;2629;50.768;7.308;2022-09-28T06:19:29;9.90;;;4.90;;
5219;SDS011;2629;50.768;7.308;2022-09-28T06:22:06;8.50;;;4.83;;
5219;SDS011;2629;50.768;7.308;2022-09-28T06:24:50;10.17;;;5.10;;
5219;SDS011;2629;50.768;7.308;2022-09-28T06:27:21;6.83;;;4.10;;
5219;SDS011;2629;50.768;7.308;2022-09-28T06:29:50;5.97;;;4.73;;
5219;SDS011;2629;50.768;7.308;2022-09-28T06:32:19;8.07;;;4.77;;
5219;SDS011;2629;50.768;7.308;2022-09-28T06:34:49;13.93;;;4.70;;
5219;SDS011;2629;50.768;7.308;2022-09-28T06:37:23;4.90;;;3.20;;
5219;SDS011;2629;50.768;7.308;2022-09-28T06:39:53;5.43;;;3.80;;
5219;SDS011;2629;50.768;7.308;2022-09-28T06:42:24;6.03;;;4.00;;
5219;SDS011;2629;50.768;7.308;2022-09-28T06:45:11;8.43;;;4.67;;
5219;SDS011;2629;50.768;7.308;2022-09-28T06:48:02;6.23;;;4.20;;
5219;SDS011;2629;50.768;7.308;2022-09-28T06:50:37;6.30;;;4.60;;
5219;SDS011;2629;50.768;7.308;2022-09-28T06:53:27;5.07;;;3.60;;
5219;SDS011;2629;50.768;7.308;2022-09-28T06:56:00;6.00;;;4.00;;
5219;SDS011;2629;50.768;7.308;2022-09-28T06:58:31;5.93;;;3.77;;
5219;SDS011;2629;50.768;7.308;2022-09-28T07:01:00;4.33;;;2.90;;
5219;SDS011;2629;50.768;7.308;2022-09-28T07:03:39;9.83;;;4.20;;
5219;SDS011;2629;50.768;7.308;2022-09-28T07:06:44;6.53;;;3.30;;
5219;SDS011;2629;50.768;7.308;2022-09-28T07:09:31;5.87;;;3.77;;
5219;SDS011;2629;50.768;7.308;2022-09-28T07:12:25;5.20;;;3.47;;
5219;SDS011;2629;50.768;7.308;2022-09-28T07:15:02;6.43;;;3.53;;
5219;SDS011;2629;50.768;7.308;2022-09-28T07:17:32;5.70;;;3.10;;
5219;SDS011;2629;50.768;7.308;2022-09-28T07:20:26;7.70;;;4.10;;
5219;SDS011;2629;50.768;7.308;2022-09-28T07:22:55;4.20;;;2.60;;
5219;SDS011;2629;50.768;7.308;2022-09-28T07:26:05;6.07;;;2.83;;
5219;SDS011;2629;50.768;7.308;2022-09-28T07:28:48;7.00;;;3.30;;
5219;SDS011;2629;50.768;7.308;2022-09-28T07:31:40;6.07;;;3.00;;
5219;SDS011;2629;50.768;7.308;2022-09-28T07:34:28;4.00;;;2.70;;
5219;SDS011;2629;50.768;7.308;2022-09-28T07:37:02;5.87;;;2.60;;
5219;SDS011;2629;50.768;7.308;2022-09-28T07:39:32;4.30;;;2.20;;
5219;SDS011;2629;50.768;7.308;2022-09-28T07:42:22;5.23;;;2.97;;
5219;SDS011;2629;50.768;7.308;2022-09-28T07:44:49;4.97;;;2.60;;
5219;SDS011;2629;50.768;7.308;2022-09-28T07:47:19;6.80;;;2.37;;
5219;SDS011;2629;50.768;7.308;2022-09-28T07:50:11;4.73;;;2.63;;
5219;SDS011;2629;50.768;7.308;2022-09-28T07:52:51;5.87;;;2.90;;
5219;SDS011;2629;50.768;7.308;2022-09-28T07:55:42;9.90;;;3.10;;
5219;SDS011;2629;50.768;7.308;2022-09-28T07:58:29;3.20;;;2.07;;
5219;SDS011;2629;50.768;7.308;2022-09-28T08:01:12;6.40;;;2.80;;
5219;SDS011;2629;50.768;7.308;2022-09-28T08:03:43;3.77;;;2.43;;
5219;SDS011;2629;50.768;7.308;2022-09-28T08:06:14;3.37;;;2.30;;
5219;SDS011;2629;50.768;7.308;2022-09-28T08:08:43;3.90;;;2.57;;
5219;SDS011;2629;50.768;7.308;2022-09-28T08:11:15;6.37;;;2.23;;
5219;SDS011;2629;50.768;7.308;2022-09-28T08:14:03;6.17;;;2.73;;
5219;SDS011;2629;50.768;7.308;2022-09-28T08:16:53;6.53;;;2.00;;
5219;SDS011;2629;50.768;7.308;2022-09-28T08:19:34;4.90;;;2.87;;
5219;SDS011;2629;50.768;7.308;2022-09-28T08:22:20;4.70;;;2.43;;
5219;SDS011;2629;50.768;7.308;2022-09-28T08:24:52;5.47;;;2.67;;
5219;SDS011;2629;50.768;7.308;2022-09-28T08:27:21;3.43;;;2.30;;
5219;SDS011;2629;50.768;7.308;2022-09-28T08:29:50;5.07;;;2.43;;
5219;SDS011;2629;50.768;7.308;2022-09-28T08:32:37;3.87;;;1.90;;
5219;SDS011;2629;50.768;7.308;2022-09-28T08:35:29;5.30;;;2.40;;
5219;SDS011;2629;50.768;7.308;2022-09-28T08:38:28;5.20;;;2.30;;
5219;SDS011;2629;50.768;7.308;2022-09-28T08:41:17;5.17;;;2.13;;
5219;SDS011;2629;50.768;7.308;2022-09-28T08:44:25;6.10;;;2.40;;
5219;SDS011;2629;50.768;7.308;2022-09-28T08:47:13;4.33;;;2.13;;
5219;SDS011;2629;50.768;7.308;2022-09-28T08:50:16;3.83;;;2.53;;
5219;SDS011;2629;50.768;7.308;2022-09-28T08:53:08;6.03;;;2.27;;
5219;SDS011;2629;50.768;7.308;2022-09-28T08:55:59;11.13;;;2.33;;
5219;SDS011;2629;50.768;7.308;2022-09-28T08:58:31;4.37;;;2.40;;
5219;SDS011;2629;50.768;7.308;2022-09-28T09:01:01;5.07;;;2.23;;
5219;SDS011;2629;50.768;7.308;2022-09-28T09:03:31;4.20;;;1.90;;
5219;SDS011;2629;50.768;7.308;2022-09-28T09:06:20;3.27;;;1.73;;
5219;SDS011;2629;50.768;7.308;2022-09-28T09:09:01;5.50;;;1.70;;
5219;SDS011;2629;50.768;7.308;2022-09-28T09:11:35;2.60;;;1.50;;
5219;SDS011;2629;50.768;7.308;2022-09-28T09:17:00;3.43;;;1.20;;
5219;SDS011;2629;50.768;7.308;2022-09-28T09:19:51;3.10;;;1.10;;
5219;SDS011;2629;50.768;7.308;2022-09-28T09:22:43;2.97;;;1.57;;
5219;SDS011;2629;50.768;7.308;2022-09-28T09:25:18;2.10;;;0.90;;
5219;SDS011;2629;50.768;7.308;2022-09-28T09:30:39;2.17;;;0.93;;
5219;SDS011;2629;50.768;7.308;2022-09-28T09:33:28;3.17;;;1.00;;
5219;SDS011;2629;50.768;7.308;2022-09-28T09:36:37;4.23;;;1.37;;
5219;SDS011;2629;50.768;7.308;2022-09-28T09:39:38;3.03;;;0.90;;
5219;SDS011;2629;50.768;7.308;2022-09-28T09:42:33;3.90;;;1.10;;
5219;SDS011;2629;50.768;7.308;2022-09-28T09:45:28;3.00;;;1.10;;
5219;SDS011;2629;50.768;7.308;2022-09-28T09:48:30;4.60;;;1.23;;
5219;SDS011;2629;50.768;7.308;2022-09-28T09:51:03;2.90;;;1.30;;
5219;SDS011;2629;50.768;7.308;2022-09-28T09:53:37;2.50;;;1.00;;
5219;SDS011;2629;50.768;7.308;2022-09-28T09:56:11;3.40;;;1.30;;
5219;SDS011;2629;50.768;7.308;2022-09-28T09:59:06;3.30;;;1.70;;
5219;SDS011;2629;50.768;7.308;2022-09-28T10:01:52;9.23;;;2.23;;
5219;SDS011;2629;50.768;7.308;2022-09-28T10:04:39;3.50;;;1.20;;
5219;SDS011;2629;50.768;7.308;2022-09-28T10:07:17;2.10;;;0.77;;
5219;SDS011;2629;50.768;7.308;2022-09-28T10:09:48;3.70;;;1.33;;
5219;SDS011;2629;50.768;7.308;2022-09-28T10:12:30;4.00;;;1.20;;
5219;SDS011;2629;50.768;7.308;2022-09-28T10:15:01;2.63;;;0.80;;
5219;SDS011;2629;50.768;7.308;2022-09-28T10:17:39;2.73;;;1.00;;
5219;SDS011;2629;50.768;7.308;2022-09-28T10:20:26;3.70;;;1.00;;
5219;SDS011;2629;50.768;7.308;2022-09-28T10:23:09;3.20;;;0.80;;
5219;SDS011;2629;50.768;7.308;2022-09-28T10:25:41;2.30;;;0.87;;
5219;SDS011;2629;50.768;7.308;2022-09-28T10:28:12;2.10;;;0.80;;
5219;SDS011;2629;50.768;7.308;2022-09-28T11:51:40;2.10;;;0.80;;
5219;SDS011;2629;50.768;7.308;2022-09-28T11:54:12;3.27;;;1.07;;
5219;SDS011;2629;50.768;7.308;2022-09-28T11:56:43;3.43;;;0.90;;
5219;SDS011;2629;50.768;7.308;2022-09-28T11:59:13;3.03;;;0.90;;
5219;SDS011;2629;50.768;7.308;2022-09-28T12:01:49;2.70;;;0.90;;
5219;SDS011;2629;50.768;7.308;2022-09-28T12:04:30;1.97;;;0.70;;
5219;SDS011;2629;50.768;7.308;2022-09-28T12:07:06;2.00;;;0.73;;
5219;SDS011;2629;50.768;7.308;2022-09-28T12:12:13;4.00;;;0.90;;
5219;SDS011;2629;50.768;7.308;2022-09-28T12:44:58;5.70;;;1.07;;
5219;SDS011;2629;50.768;7.308;2022-09-28T12:47:38;2.87;;;0.90;;
5219;SDS011;2629;50.768;7.308;2022-09-28T12:50:17;5.43;;;1.27;;
5219;SDS011;2629;50.768;7.308;2022-09-28T12:53:09;2.67;;;0.97;;
5219;SDS011;2629;50.768;7.308;2022-09-28T12:55:56;2.10;;;0.73;;
5219;SDS011;2629;50.768;7.308;2022-09-28T12:58:32;1.90;;;0.70;;
5219;SDS011;2629;50.768;7.308;2022-09-28T13:01:10;3.77;;;1.20;;
5219;SDS011;2629;50.768;7.308;2022-09-28T13:06:31;1.97;;;0.93;;
5219;SDS011;2629;50.768;7.308;2022-09-28T13:09:11;1.97;;;0.80;;
5219;SDS011;2629;50.768;7.308;2022-09-28T13:11:44;2.20;;;0.83;;
5219;SDS011;2629;50.768;7.308;2022-09-28T13:14:32;2.57;;;0.93;;
5219;SDS011;2629;50.768;7.308;2022-09-28T13:17:05;10.57;;;0.90;;
5219;SDS011;2629;50.768;7.308;2022-09-28T13:19:40;9.33;;;1.10;;
5219;SDS011;2629;50.768;7.308;2022-09-28T13:22:18;2.60;;;0.90;;
5219;SDS011;2629;50.768;7.308;2022-09-28T13:24:49;5.20;;;1.30;;
5219;SDS011;2629;50.768;7.308;2022-09-28T13:27:22;2.40;;;0.73;;
5219;SDS011;2629;50.768;7.308;2022-09-28T13:29:52;4.30;;;1.27;;
5219;SDS011;2629;50.768;7.308;2022-09-28T13:32:27;7.07;;;1.10;;
5219;SDS011;2629;50.768;7.308;2022-09-28T13:34:57;4.63;;;1.00;;
5219;SDS011;2629;50.768;7.308;2022-09-28T13:37:27;4.43;;;0.97;;
5219;SDS011;2629;50.768;7.308;2022-09-28T13:39:57;2.50;;;0.90;;
5219;SDS011;2629;50.768;7.308;2022-09-28T13:42:44;3.13;;;1.03;;
5219;SDS011;2629;50.768;7.308;2022-09-28T13:48:08;4.10;;;1.20;;
5219;SDS011;2629;50.768;7.308;2022-09-28T13:50:44;2.90;;;1.10;;
5219;SDS011;2629;50.768;7.308;2022-09-28T13:53:19;3.30;;;1.00;;
5219;SDS011;2629;50.768;7.308;2022-09-28T13:55:52;2.70;;;0.97;;
5219;SDS011;2629;50.768;7.308;2022-09-28T13:58:24;2.73;;;1.03;;
5219;SDS011;2629;50.768;7.308;2022-09-28T14:00:55;2.97;;;1.20;;
5219;SDS011;2629;50.768;7.308;2022-09-28T14:03:28;2.87;;;1.27;;
5219;SDS011;2629;50.768;7.308;2022-09-28T14:06:20;5.03;;;2.13;;
5219;SDS011;2629;50.768;7.308;2022-09-28T14:09:05;2.90;;;1.13;;
5219;SDS011;2629;50.768;7.308;2022-09-28T14:11:39;5.70;;;1.03;;
5219;SDS011;2629;50.768;7.308;2022-09-28T14:17:28;4.17;;;1.20;;
5219;SDS011;2629;50.768;7.308;2022-09-28T14:19:50;3.05;;;1.17;;
5219;SDS011;2629;50.768;7.308;2022-09-28T14:22:20;4.20;;;1.30;;
5219;SDS011;2629;50.768;7.308;2022-09-28T14:30:21;4.30;;;1.17;;
5219;SDS011;2629;50.768;7.308;2022-09-28T14:32:52;2.70;;;1.23;;
5219;SDS011;2629;50.768;7.308;2022-09-28T14:35:29;6.17;;;1.30;;
5219;SDS011;2629;50.768;7.308;2022-09-28T14:38:01;7.47;;;1.20;;
5219;SDS011;2629;50.768;7.308;2022-09-28T14:40:58;3.13;;;1.20;;
5219;SDS011;2629;50.768;7.308;2022-09-28T14:43:56;2.23;;;0.83;;
5219;SDS011;2629;50.768;7.308;2022-09-28T14:46:29;4.20;;;1.97;;
5219;SDS011;2629;50.768;7.308;2022-09-28T14:48:59;3.60;;;1.53;;
5219;SDS011;2629;50.768;7.308;2022-09-28T14:54:20;2.93;;;1.17;;
5219;SDS011;2629;50.768;7.308;2022-09-28T14:56:54;2.10;;;0.83;;
5219;SDS011;2629;50.768;7.308;2022-09-28T14:59:24;3.47;;;1.23;;
5219;SDS011;2629;50.768;7.308;2022-09-28T15:01:55;2.27;;;1.10;;
5219;SDS011;2629;50.768;7.308;2022-09-28T15:04:27;4.07;;;1.17;;
5219;SDS011;2629;50.768;7.308;2022-09-28T15:06:56;3.43;;;1.40;;
5219;SDS011;2629;50.768;7.308;2022-09-28T15:09:27;4.00;;;1.30;;
5219;SDS011;2629;50.768;7.308;2022-09-28T15:11:59;2.27;;;1.03;;
5219;SDS011;2629;50.768;7.308;2022-09-28T15:14:28;6.17;;;1.37;;
5219;SDS011;2629;50.768;7.308;2022-09-28T15:16:57;3.33;;;1.50;;
5219;SDS011;2629;50.768;7.308;2022-09-28T15:19:29;6.83;;;1.40;;
5219;SDS011;2629;50.768;7.308;2022-09-28T15:22:00;7.27;;;1.07;;
5219;SDS011;2629;50.768;7.308;2022-09-28T15:24:31;2.70;;;1.20;;
5219;SDS011;2629;50.768;7.308;2022-09-28T15:27:00;8.07;;;1.23;;
5219;SDS011;2629;50.768;7.308;2022-09-28T15:29:29;2.57;;;1.13;;
5219;SDS011;2629;50.768;7.308;2022-09-28T15:31:59;3.13;;;1.30;;
5219;SDS011;2629;50.768;7.308;2022-09-28T15:34:28;3.70;;;1.77;;
5219;SDS011;2629;50.768;7.308;2022-09-28T15:37:15;2.67;;;1.40;;
5219;SDS011;2629;50.768;7.308;2022-09-28T15:39:49;4.97;;;1.50;;
5219;SDS011;2629;50.768;7.308;2022-09-28T15:42:18;2.97;;;1.30;;
5219;SDS011;2629;50.768;7.308;2022-09-28T15:44:58;2.90;;;1.20;;
5219;SDS011;2629;50.768;7.308;2022-09-28T15:47:28;4.80;;;1.13;;
5219;SDS011;2629;50.768;7.308;2022-09-28T15:49:58;4.00;;;1.23;;
5219;SDS011;2629;50.768;7.308;2022-09-28T15:52:32;5.20;;;1.53;;
5219;SDS011;2629;50.768;7.308;2022-09-28T15:55:16;4.60;;;1.60;;
5219;SDS011;2629;50.768;7.308;2022-09-28T15:57:46;5.80;;;1.40;;
5219;SDS011;2629;50.768;7.308;2022-09-28T16:00:21;3.80;;;1.27;;
5219;SDS011;2629;50.768;7.308;2022-09-28T16:03:00;3.13;;;1.63;;
5219;SDS011;2629;50.768;7.308;2022-09-28T16:05:36;4.17;;;1.30;;
5219;SDS011;2629;50.768;7.308;2022-09-28T16:08:10;3.93;;;1.30;;
5219;SDS011;2629;50.768;7.308;2022-09-28T16:10:52;3.80;;;1.30;;
5219;SDS011;2629;50.768;7.308;2022-09-28T16:13:21;3.03;;;1.67;;
5219;SDS011;2629;50.768;7.308;2022-09-28T16:15:53;3.57;;;1.90;;
5219;SDS011;2629;50.768;7.308;2022-09-28T16:18:25;4.90;;;1.90;;
5219;SDS011;2629;50.768;7.308;2022-09-28T16:20:55;3.80;;;1.50;;
5219;SDS011;2629;50.768;7.308;2022-09-28T16:23:28;4.40;;;2.50;;
5219;SDS011;2629;50.768;7.308;2022-09-28T16:26:00;6.10;;;2.90;;
5219;SDS011;2629;50.768;7.308;2022-09-28T16:28:47;8.27;;;4.50;;
5219;SDS011;2629;50.768;7.308;2022-09-28T16:31:28;4.60;;;2.17;;
5219;SDS011;2629;50.768;7.308;2022-09-28T16:33:59;3.10;;;1.07;;
5219;SDS011;2629;50.768;7.308;2022-09-28T16:36:38;3.07;;;0.90;;
5219;SDS011;2629;50.768;7.308;2022-09-28T16:39:09;6.73;;;1.20;;
5219;SDS011;2629;50.768;7.308;2022-09-28T16:41:39;2.30;;;1.00;;
5219;SDS011;2629;50.768;7.308;2022-09-28T16:44:12;2.47;;;1.20;;
5219;SDS011;2629;50.768;7.308;2022-09-28T16:46:42;2.10;;;0.80;;
5219;SDS011;2629;50.768;7.308;2022-09-28T16:49:12;2.10;;;0.90;;
5219;SDS011;2629;50.768;7.308;2022-09-28T16:51:45;2.73;;;1.10;;
5219;SDS011;2629;50.768;7.308;2022-09-28T16:54:15;2.47;;;1.20;;
5219;SDS011;2629;50.768;7.308;2022-09-28T16:57:03;2.13;;;1.00;;
5219;SDS011;2629;50.768;7.308;2022-09-28T16:59:32;2.47;;;1.10;;
5219;SDS011;2629;50.768;7.308;2022-09-28T17:02:14;3.07;;;1.07;;
5219;SDS011;2629;50.768;7.308;2022-09-28T17:05:03;5.90;;;2.30;;
5219;SDS011;2629;50.768;7.308;2022-09-28T17:07:33;5.23;;;2.10;;
5219;SDS011;2629;50.768;7.308;2022-09-28T17:10:07;2.93;;;1.50;;
5219;SDS011;2629;50.768;7.308;2022-09-28T17:12:39;4.80;;;1.60;;
5219;SDS011;2629;50.768;7.308;2022-09-28T17:15:08;2.90;;;1.40;;
5219;SDS011;2629;50.768;7.308;2022-09-28T17:17:37;3.60;;;1.50;;
5219;SDS011;2629;50.768;7.308;2022-09-28T17:20:14;2.93;;;1.10;;
5219;SDS011;2629;50.768;7.308;2022-09-28T17:22:44;2.50;;;1.20;;
5219;SDS011;2629;50.768;7.308;2022-09-28T17:25:13;4.23;;;1.10;;
5219;SDS011;2629;50.768;7.308;2022-09-28T17:27:43;6.13;;;1.47;;
5219;SDS011;2629;50.768;7.308;2022-09-28T17:30:13;2.10;;;0.90;;
5219;SDS011;2629;50.768;7.308;2022-09-28T17:32:42;3.93;;;1.30;;
5219;SDS011;2629;50.768;7.308;2022-09-28T17:35:13;2.50;;;1.30;;
5219;SDS011;2629;50.768;7.308;2022-09-28T17:37:51;4.93;;;1.63;;
5219;SDS011;2629;50.768;7.308;2022-09-28T17:40:20;3.27;;;1.47;;
5219;SDS011;2629;50.768;7.308;2022-09-28T17:42:51;4.70;;;1.60;;
5219;SDS011;2629;50.768;7.308;2022-09-28T17:45:23;7.43;;;1.90;;
5219;SDS011;2629;50.768;7.308;2022-09-28T17:47:54;3.80;;;1.60;;
5219;SDS011;2629;50.768;7.308;2022-09-28T17:50:24;4.00;;;1.50;;
5219;SDS011;2629;50.768;7.308;2022-09-28T17:52:53;4.43;;;1.70;;
5219;SDS011;2629;50.768;7.308;2022-09-28T17:55:24;3.43;;;1.70;;
5219;SDS011;2629;50.768;7.308;2022-09-28T17:57:55;3.93;;;1.57;;
5219;SDS011;2629;50.768;7.308;2022-09-28T18:00:24;2.77;;;1.60;;
5219;SDS011;2629;50.768;7.308;2022-09-28T18:02:53;4.10;;;1.80;;
5219;SDS011;2629;50.768;7.308;2022-09-28T18:05:22;3.70;;;1.43;;
5219;SDS011;2629;50.768;7.308;2022-09-28T18:07:51;3.03;;;1.30;;
5219;SDS011;2629;50.768;7.308;2022-09-28T18:10:21;3.97;;;2.30;;
5219;SDS011;2629;50.768;7.308;2022-09-28T18:12:51;5.27;;;2.40;;
5219;SDS011;2629;50.768;7.308;2022-09-28T18:15:21;5.03;;;2.50;;
5219;SDS011;2629;50.768;7.308;2022-09-28T18:17:50;5.03;;;2.60;;
5219;SDS011;2629;50.768;7.308;2022-09-28T18:20:18;4.27;;;2.37;;
5219;SDS011;2629;50.768;7.308;2022-09-28T18:22:47;5.60;;;3.20;;
5219;SDS011;2629;50.768;7.308;2022-09-28T18:25:16;8.40;;;2.77;;
5219;SDS011;2629;50.768;7.308;2022-09-28T18:27:45;4.43;;;2.10;;